Lake City, Minnesota
Current Conditions -  °F | °C
As of 4:51 PM on Tuesday 27 Jan 2015 (Local Time) from KRGK Reporting Station
Overcast Overcast  
Wind Chill: 23°   Ceiling: 2000
Heat Index: 30°   Visibility: 10mi
Dew Point: 25°   Wind: 8mph
Humidity: 80%   Direction: 130°SE
Pressure: 30.17"   Gusts: NA
Location:  44.45°N, 92.27°W
Report Text: KRGK 272251Z AUTO 13007KT 10SM OVC020 M01/M04 A3017 RMK AO2
Loading
Personal Weather Stations






























Interactive Weather Map New forecast layout! Learn more

10-Day Weather Forecast

Advertisements
Track Severe Weather on mobile